createdAt,value
2023-02-01T00:00:54.085Z,96441.25
2023-02-01T00:03:20.601Z,96443.06
2023-02-01T00:05:55.731Z,96442.16
2023-02-01T00:08:22.153Z,96437.78
2023-02-01T00:10:48.552Z,96436.16
2023-02-01T00:13:14.972Z,96432.69
2023-02-01T00:15:41.439Z,96420.69
2023-02-01T00:18:07.812Z,96428.50
2023-02-01T00:20:34.243Z,96419.97
2023-02-01T00:23:00.605Z,96431.88
2023-02-01T00:25:26.995Z,96422.41
2023-02-01T00:27:53.410Z,96423.38
2023-02-01T00:30:20.344Z,96431.13
2023-02-01T00:32:46.920Z,96425.09
2023-02-01T00:35:13.336Z,96422.50
2023-02-01T00:37:39.735Z,96421.75
2023-02-01T00:40:06.402Z,96411.50
2023-02-01T00:42:32.794Z,96407.09
2023-02-01T00:44:59.146Z,96413.16
2023-02-01T00:47:25.806Z,96413.22
2023-02-01T00:49:52.517Z,96411.38
2023-02-01T00:52:18.900Z,96403.75
2023-02-01T00:54:45.305Z,96405.31
2023-02-01T00:57:11.935Z,96402.75
2023-02-01T00:59:38.381Z,96406.19
2023-02-01T01:02:04.880Z,96388.22
2023-02-01T01:04:31.304Z,96383.91
2023-02-01T01:06:57.730Z,96375.44
2023-02-01T01:09:24.089Z,96375.44
2023-02-01T01:11:52.349Z,96380.53
2023-02-01T01:14:18.827Z,96377.13
2023-02-01T01:16:45.313Z,96383.91
2023-02-01T01:19:13.021Z,96386.59
2023-02-01T01:21:39.425Z,96376.22
2023-02-01T01:24:06.073Z,96382.28
2023-02-01T01:26:32.566Z,96372.91
2023-02-01T01:28:59.871Z,96392.63
2023-02-01T01:31:26.458Z,96398.66
2023-02-01T01:33:53.987Z,96386.63
2023-02-01T01:36:21.020Z,96390.06
2023-02-01T01:38:47.798Z,96392.59
2023-02-01T01:41:15.967Z,96392.63
2023-02-01T01:44:00.358Z,96380.63
2023-02-01T01:46:32.794Z,96384.88
2023-02-01T01:49:08.948Z,96378.97
2023-02-01T01:51:38.647Z,96373.75
2023-02-01T01:54:09.459Z,96368.75
2023-02-01T01:56:36.431Z,96363.50
2023-02-01T01:59:04.377Z,96361.00
2023-02-01T02:01:30.949Z,96357.59
2023-02-01T02:03:57.763Z,96355.84
2023-02-01T02:06:39.639Z,96363.59
2023-02-01T02:09:07.095Z,96348.94
2023-02-01T02:11:33.784Z,96360.94
2023-02-01T02:14:00.536Z,96355.78
2023-02-01T02:16:42.347Z,96356.69
2023-02-01T02:23:02.013Z,96347.25
2023-02-01T02:25:47.415Z,96344.69
2023-02-01T02:28:26.079Z,96347.34
2023-02-01T02:31:04.777Z,96341.31
2023-02-01T02:33:31.267Z,96338.75
2023-02-01T02:36:02.717Z,96337.06
2023-02-01T02:38:37.553Z,96334.44
2023-02-01T02:41:13.201Z,96332.78
2023-02-01T02:44:08.140Z,96334.44
2023-02-01T02:46:56.837Z,96335.28
2023-02-01T02:49:23.598Z,96329.34
2023-02-01T02:52:12.207Z,96325.75
2023-02-01T02:54:48.321Z,96324.91
2023-02-01T02:57:39.937Z,96329.22
2023-02-01T03:00:28.190Z,96329.28
2023-02-01T03:03:13.862Z,96329.19
2023-02-01T03:05:45.343Z,96325.81
2023-02-01T03:08:12.947Z,96341.25
2023-02-01T03:10:58.551Z,96336.91
2023-02-01T03:13:39.571Z,96327.56
2023-02-01T03:16:06.139Z,96331.00
2023-02-01T03:18:45.601Z,96333.59
2023-02-01T03:21:15.074Z,96339.63
2023-02-01T03:23:43.843Z,96340.44
2023-02-01T03:26:12.442Z,96341.31
2023-02-01T03:28:43.023Z,96337.91
2023-02-01T03:31:09.642Z,96337.03
2023-02-01T03:33:36.312Z,96349.06
2023-02-01T03:36:19.527Z,96345.63
2023-02-01T03:38:52.069Z,96344.75
2023-02-01T03:41:26.294Z,96343.00
2023-02-01T03:43:58.891Z,96332.63
2023-02-01T03:46:33.990Z,96340.41
2023-02-01T03:49:03.247Z,96341.19
2023-02-01T03:51:31.250Z,96348.06
2023-02-01T03:53:58.187Z,96357.47
2023-02-01T03:56:27.350Z,96359.28
2023-02-01T03:59:00.134Z,96353.16
2023-02-01T04:01:31.780Z,96352.25
2023-02-01T04:03:58.925Z,96346.25
2023-02-01T04:06:25.733Z,96330.91
2023-02-01T04:08:54.384Z,96333.38
2023-02-01T04:11:20.832Z,96326.53
2023-02-01T04:13:47.260Z,96335.94
2023-02-01T04:16:14.285Z,96327.38
2023-02-01T04:18:40.797Z,96321.38
2023-02-01T04:21:07.593Z,96311.97
2023-02-01T04:23:34.020Z,96296.50
2023-02-01T04:26:01.584Z,96302.47
2023-02-01T04:28:28.160Z,96306.75
2023-02-01T04:30:54.722Z,96301.63
2023-02-01T04:33:21.351Z,96304.28
2023-02-01T04:35:48.225Z,96303.38
2023-02-01T04:38:14.669Z,96321.31
2023-02-01T04:40:41.114Z,96325.66
2023-02-01T04:43:07.539Z,96334.31
2023-02-01T04:45:33.984Z,96334.34
2023-02-01T04:48:00.550Z,96326.50
2023-02-01T04:50:27.031Z,96337.66
2023-02-01T04:52:53.605Z,96328.16
2023-02-01T04:55:20.563Z,96347.19
2023-02-01T04:57:47.261Z,96339.44
2023-02-01T05:00:14.186Z,96333.41
2023-02-01T05:02:41.089Z,96331.59
2023-02-01T05:05:07.679Z,96323.97
2023-02-01T05:07:34.152Z,96313.69
2023-02-01T05:10:00.603Z,96330.81
2023-02-01T05:12:45.744Z,96330.78
2023-02-01T05:15:12.176Z,96322.22
2023-02-01T05:17:41.038Z,96316.25
2023-02-01T05:20:08.336Z,96309.38
2023-02-01T05:22:34.802Z,96293.06
2023-02-01T05:25:01.250Z,96290.47
2023-02-01T05:27:29.682Z,96307.66
2023-02-01T05:29:56.120Z,96318.03
2023-02-01T05:32:23.370Z,96331.75
2023-02-01T05:34:50.269Z,96342.81
2023-02-01T05:37:16.799Z,96332.59
2023-02-01T05:39:43.240Z,96327.41
2023-02-01T05:42:09.698Z,96329.19
2023-02-01T05:44:36.163Z,96333.47
2023-02-01T05:47:02.620Z,96329.19
2023-02-01T05:49:29.058Z,96324.88
2023-02-01T05:51:55.523Z,96330.00
2023-02-01T05:54:22.018Z,96346.38
2023-02-01T05:56:48.603Z,96352.41
2023-02-01T05:59:15.026Z,96351.53
2023-02-01T06:01:41.544Z,96349.78
2023-02-01T06:04:08.272Z,96362.72
2023-02-01T06:06:35.140Z,96352.38
2023-02-01T06:09:01.863Z,96348.88
2023-02-01T06:11:33.118Z,96351.47
2023-02-01T06:14:00.161Z,96353.19
2023-02-01T06:16:27.110Z,96354.94
2023-02-01T06:18:53.826Z,96356.69
2023-02-01T06:21:24.726Z,96360.94
2023-02-01T06:23:55.152Z,96361.78
2023-02-01T06:26:21.748Z,96370.47
2023-02-01T06:28:48.487Z,96363.59
2023-02-01T06:31:15.125Z,96363.59
2023-02-01T06:33:42.527Z,96361.03
2023-02-01T06:36:10.643Z,96351.53
2023-02-01T06:38:37.154Z,96347.28
2023-02-01T06:41:04.436Z,96341.19
2023-02-01T06:43:31.608Z,96344.63
2023-02-01T06:46:02.269Z,96348.94
2023-02-01T06:48:28.716Z,96351.50
2023-02-01T06:50:55.561Z,96353.22
2023-02-01T06:53:22.374Z,96341.25
2023-02-01T06:55:59.138Z,96352.41
2023-02-01T06:58:28.529Z,96369.59
2023-02-01T07:00:55.132Z,96368.81
2023-02-01T07:03:21.711Z,96368.69
2023-02-01T07:05:48.699Z,96370.47
2023-02-01T07:08:15.298Z,96363.53
2023-02-01T07:10:41.826Z,96372.94
2023-02-01T07:13:08.391Z,96381.50
2023-02-01T07:15:35.054Z,96369.53
2023-02-01T07:18:01.953Z,96373.00
2023-02-01T07:20:28.461Z,96367.81
2023-02-01T07:22:58.291Z,96361.81
2023-02-01T07:25:24.860Z,96384.06
2023-02-01T07:27:51.400Z,96378.06
2023-02-01T07:30:18.045Z,96379.78
2023-02-01T07:32:44.541Z,96386.63
2023-02-01T07:35:11.085Z,96390.94
2023-02-01T07:37:37.575Z,96385.72
2023-02-01T07:40:04.328Z,96391.81
2023-02-01T07:42:31.197Z,96401.38
2023-02-01T07:44:59.749Z,96399.69
2023-02-01T07:47:29.700Z,96395.41
2023-02-01T07:49:56.253Z,96401.44
2023-02-01T07:52:22.691Z,96410.75
2023-02-01T07:54:49.123Z,96422.78
2023-02-01T07:57:15.566Z,96434.00
2023-02-01T08:00:02.293Z,96432.19
2023-02-01T08:02:39.050Z,96428.81
2023-02-01T08:05:06.613Z,96422.72
2023-02-01T08:07:33.050Z,96421.06
2023-02-01T08:10:00.901Z,96430.41
2023-02-01T08:12:27.989Z,96425.34
2023-02-01T08:14:54.790Z,96431.44
2023-02-01T08:17:21.354Z,96427.06
2023-02-01T08:19:47.817Z,96422.75
2023-02-01T08:22:14.238Z,96421.94
2023-02-01T08:24:42.083Z,96411.63
2023-02-01T08:27:08.541Z,96404.84
2023-02-01T08:29:35.494Z,96405.63
2023-02-01T08:32:02.010Z,96406.44
2023-02-01T08:34:28.852Z,96404.75
2023-02-01T08:36:58.832Z,96402.25
2023-02-01T08:39:26.365Z,96404.81
2023-02-01T08:42:11.442Z,96399.59
2023-02-01T08:44:37.928Z,96388.44
2023-02-01T08:47:04.458Z,96393.66
2023-02-01T08:49:30.975Z,96391.97
2023-02-01T08:52:00.958Z,96400.50
2023-02-01T08:54:30.348Z,96402.28
2023-02-01T08:56:57.401Z,96399.69
2023-02-01T08:59:25.154Z,96403.97
2023-02-01T09:01:53.125Z,96404.88
2023-02-01T09:04:19.786Z,96401.44
2023-02-01T09:06:46.337Z,96403.09
2023-02-01T09:09:13.262Z,96403.13
2023-02-01T09:11:39.867Z,96415.16
2023-02-01T09:14:07.115Z,96418.56
2023-02-01T09:16:33.578Z,96418.63
2023-02-01T09:19:23.929Z,96427.28
2023-02-01T09:21:46.480Z,96427.25
2023-02-01T09:24:13.714Z,96427.16
2023-02-01T09:26:40.498Z,96430.69
2023-02-01T09:29:13.192Z,96434.97
2023-02-01T09:31:44.096Z,96437.47
2023-02-01T09:34:16.425Z,96426.34
2023-02-01T09:36:42.864Z,96429.00
2023-02-01T09:39:09.316Z,96439.28
2023-02-01T09:41:55.027Z,96435.00
2023-02-01T09:44:44.280Z,96441.88
2023-02-01T09:47:19.452Z,96446.94
2023-02-01T09:50:06.169Z,96444.34
2023-02-01T09:52:39.444Z,96440.94
2023-02-01T09:55:12.307Z,96428.97
2023-02-01T09:57:42.754Z,96435.81
2023-02-01T10:00:16.421Z,96445.34
2023-02-01T10:02:43.665Z,96433.25
2023-02-01T10:05:14.572Z,96436.66
2023-02-01T10:08:05.899Z,96435.78
2023-02-01T10:10:45.039Z,96433.34
2023-02-01T10:13:11.455Z,96435.84
2023-02-01T10:15:38.102Z,96428.94
2023-02-01T10:18:23.177Z,96446.19
2023-02-01T10:20:49.639Z,96437.63
2023-02-01T10:23:34.362Z,96441.09
2023-02-01T10:26:06.031Z,96440.19
2023-02-01T10:28:35.283Z,96450.50
2023-02-01T10:31:02.835Z,96442.78
2023-02-01T10:33:42.671Z,96465.16
2023-02-01T10:36:09.133Z,96459.94
2023-02-01T10:38:35.645Z,96468.56
2023-02-01T10:41:03.915Z,96467.75
2023-02-01T10:43:31.026Z,96484.91
2023-02-01T10:45:57.719Z,96465.19
2023-02-01T10:48:24.375Z,96477.19
2023-02-01T10:50:54.562Z,96473.72
2023-02-01T10:53:25.277Z,96468.63
2023-02-01T10:55:55.374Z,96470.34
2023-02-01T10:58:29.998Z,96461.75
2023-02-01T11:01:07.813Z,96462.66
2023-02-01T11:03:45.083Z,96464.31
2023-02-01T11:06:14.620Z,96458.28
2023-02-01T11:08:49.013Z,96454.88
2023-02-01T11:11:15.712Z,96448.03
2023-02-01T11:13:42.838Z,96444.56
2023-02-01T11:16:13.057Z,96441.16
2023-02-01T11:18:39.534Z,96442.00
2023-02-01T11:21:07.217Z,96436.84
2023-02-01T11:23:34.630Z,96438.53
2023-02-01T11:26:02.749Z,96429.09
2023-02-01T11:28:33.426Z,96431.66
2023-02-01T11:31:01.746Z,96435.09
2023-02-01T11:33:31.399Z,96435.13
2023-02-01T11:35:59.382Z,96441.97
2023-02-01T11:38:33.667Z,96441.09
2023-02-01T11:41:21.927Z,96435.94
2023-02-01T11:43:52.708Z,96434.28
2023-02-01T11:46:26.101Z,96429.09
2023-02-01T11:48:53.728Z,96428.25
2023-02-01T11:51:25.950Z,96421.38
2023-02-01T11:53:55.476Z,96417.94
2023-02-01T11:56:24.921Z,96416.25
2023-02-01T11:58:51.476Z,96411.91
2023-02-01T12:01:23.978Z,96399.91
2023-02-01T12:03:57.582Z,96406.81
2023-02-01T12:06:43.093Z,96396.50
2023-02-01T12:09:17.270Z,96392.19
2023-02-01T12:11:43.720Z,96391.28
2023-02-01T12:14:10.202Z,96385.31
2023-02-01T12:16:51.743Z,96380.19
2023-02-01T12:19:33.611Z,96391.31
2023-02-01T12:22:00.031Z,96382.72
2023-02-01T12:24:38.796Z,96374.16
2023-02-01T12:27:08.265Z,96367.25
2023-02-01T12:29:49.388Z,96363.81
2023-02-01T12:32:37.179Z,96374.13
2023-02-01T12:35:16.035Z,96375.00
2023-02-01T12:38:01.408Z,96374.16
2023-02-01T12:40:37.156Z,96370.72
2023-02-01T12:43:06.758Z,96377.59
2023-02-01T12:45:35.806Z,96387.88
2023-02-01T12:48:19.572Z,96379.28
2023-02-01T12:50:50.116Z,96372.44
2023-02-01T12:53:25.472Z,96362.97
2023-02-01T12:55:54.569Z,96362.97
2023-02-01T12:58:36.276Z,96360.41
2023-02-01T13:01:21.590Z,96356.09
2023-02-01T13:04:08.640Z,96350.91
2023-02-01T13:06:44.293Z,96343.22
2023-02-01T13:09:21.704Z,96334.63
2023-02-01T13:11:48.946Z,96333.78
2023-02-01T13:14:26.530Z,96333.75
2023-02-01T13:16:57.533Z,96337.19
2023-02-01T13:19:28.536Z,96335.47
2023-02-01T13:21:57.702Z,96330.28
2023-02-01T13:24:24.112Z,96344.06
2023-02-01T13:26:53.924Z,96348.34
2023-02-01T13:29:21.953Z,96351.78
2023-02-01T13:32:07.386Z,96351.78
2023-02-01T13:34:33.810Z,96356.06
2023-02-01T13:37:06.176Z,96348.34
2023-02-01T13:39:44.170Z,96354.38
2023-02-01T13:42:22.455Z,96349.22
2023-02-01T13:44:51.465Z,96350.97
2023-02-01T13:47:32.552Z,96350.97
2023-02-01T13:50:01.623Z,96334.59
2023-02-01T13:52:35.487Z,96339.78
2023-02-01T13:55:04.495Z,96340.63
2023-02-01T13:57:42.125Z,96336.34
2023-02-01T14:00:23.654Z,96341.47
2023-02-01T14:03:07.522Z,96334.63
2023-02-01T14:05:35.417Z,96326.88
2023-02-01T14:08:08.144Z,96328.63
2023-02-01T14:10:58.261Z,96325.16
2023-02-01T14:13:34.007Z,96324.31
2023-02-01T14:16:03.835Z,96322.59
2023-02-01T14:18:36.906Z,96329.44
2023-02-01T14:21:22.130Z,96326.03
2023-02-01T14:23:58.059Z,96323.47
2023-02-01T14:26:43.047Z,96327.75
2023-02-01T14:29:28.249Z,96328.63
2023-02-01T14:32:00.667Z,96320.88
2023-02-01T14:34:36.539Z,96326.03
2023-02-01T14:37:04.808Z,96314.00
2023-02-01T14:40:02.111Z,96320.88
2023-02-01T14:42:34.642Z,96320.00
2023-02-01T14:45:27.733Z,96322.59
2023-02-01T14:47:55.548Z,96331.19
2023-02-01T14:50:33.323Z,96331.19
2023-02-01T14:53:15.741Z,96328.59
2023-02-01T14:55:50.207Z,96335.47
2023-02-01T14:58:25.401Z,96340.63
2023-02-01T15:00:54.033Z,96351.81
2023-02-01T15:03:31.424Z,96350.94
2023-02-01T15:05:59.380Z,96347.47
2023-02-01T15:08:31.212Z,96353.53
2023-02-01T15:10:59.852Z,96350.06
2023-02-01T15:13:27.186Z,96336.34
2023-02-01T15:16:04.385Z,96340.59
2023-02-01T15:18:31.327Z,96356.94
2023-02-01T15:21:06.968Z,96360.38
2023-02-01T15:23:49.399Z,96359.56
2023-02-01T15:26:25.869Z,96359.53
2023-02-01T15:28:52.464Z,96363.84
2023-02-01T15:31:32.346Z,96355.22
2023-02-01T15:33:59.008Z,96357.81
2023-02-01T15:36:28.542Z,96367.25
2023-02-01T15:39:18.979Z,96365.53
2023-02-01T15:41:47.857Z,96353.53
2023-02-01T15:44:23.307Z,96375.88
2023-02-01T15:46:50.753Z,96369.84
2023-02-01T15:49:20.983Z,96370.72
2023-02-01T15:51:48.035Z,96353.53
2023-02-01T15:54:22.072Z,96373.28
2023-02-01T15:56:54.119Z,96374.16
2023-02-01T15:59:23.147Z,96382.72
2023-02-01T16:01:49.824Z,96380.16
2023-02-01T16:04:27.296Z,96375.84
2023-02-01T16:06:58.354Z,96387.03
2023-02-01T16:09:28.202Z,96383.56
2023-02-01T16:11:58.085Z,96381.00
2023-02-01T16:14:24.989Z,96382.72
2023-02-01T16:16:52.719Z,96375.84
2023-02-01T16:19:19.350Z,96377.56
2023-02-01T16:21:46.497Z,96384.41
2023-02-01T16:24:13.030Z,96389.59
2023-02-01T16:26:40.232Z,96384.41
2023-02-01T16:29:09.754Z,96389.59
2023-02-01T16:31:38.894Z,96396.44
2023-02-01T16:34:06.822Z,96390.47
2023-02-01T16:36:33.846Z,96382.66
2023-02-01T16:39:00.633Z,96384.41
2023-02-01T16:41:28.877Z,96388.69
2023-02-01T16:43:56.308Z,96388.66
2023-02-01T16:46:25.902Z,96380.00
2023-02-01T16:48:53.932Z,96374.91
2023-02-01T16:51:20.540Z,96380.09
2023-02-01T16:53:54.217Z,96385.22
2023-02-01T16:56:26.414Z,96373.22
2023-02-01T16:58:54.214Z,96378.38
2023-02-01T17:01:21.579Z,96376.63
2023-02-01T17:03:48.189Z,96381.75
2023-02-01T17:06:17.386Z,96380.09
2023-02-01T17:08:45.319Z,96370.63
2023-02-01T17:11:13.904Z,96377.44
2023-02-01T17:13:42.095Z,96380.06
2023-02-01T17:16:17.944Z,96379.22
2023-02-01T17:18:45.162Z,96380.97
2023-02-01T17:21:11.620Z,96375.78
2023-02-01T17:23:38.494Z,96386.06
2023-02-01T17:26:05.230Z,96383.47
2023-02-01T17:28:31.648Z,96394.69
2023-02-01T17:30:58.213Z,96399.84
2023-02-01T17:33:27.177Z,96404.16
2023-02-01T17:35:54.933Z,96412.72
2023-02-01T17:38:21.852Z,96417.91
2023-02-01T17:40:48.376Z,96416.19
2023-02-01T17:43:15.858Z,96430.81
2023-02-01T17:45:51.510Z,96428.19
2023-02-01T17:48:21.660Z,96425.63
2023-02-01T17:50:50.199Z,96426.53
2023-02-01T17:53:16.930Z,96422.19
2023-02-01T17:55:44.809Z,96425.59
2023-02-01T17:58:15.396Z,96432.50
2023-02-01T18:00:42.637Z,96433.38
2023-02-01T18:03:30.102Z,96428.19
2023-02-01T18:05:57.630Z,96428.25
2023-02-01T18:08:25.489Z,96427.41
2023-02-01T18:10:54.273Z,96435.97
2023-02-01T18:13:21.342Z,96438.56
2023-02-01T18:15:48.218Z,96441.16
2023-02-01T18:18:14.651Z,96435.13
2023-02-01T18:20:43.508Z,96440.22
2023-02-01T18:23:14.203Z,96437.63
2023-02-01T18:25:40.805Z,96435.91
2023-02-01T18:28:07.267Z,96440.22
2023-02-01T18:30:34.262Z,96448.84
2023-02-01T18:33:00.880Z,96441.97
2023-02-01T18:35:28.437Z,96449.69
2023-02-01T18:37:56.496Z,96448.88
2023-02-01T18:40:24.415Z,96454.88
2023-02-01T18:42:50.956Z,96462.59
2023-02-01T18:45:27.027Z,96466.88
2023-02-01T18:47:53.805Z,96476.28
2023-02-01T18:50:20.582Z,96471.16
2023-02-01T18:52:47.277Z,96477.13
2023-02-01T18:55:13.981Z,96486.59
2023-02-01T18:57:40.842Z,96484.81
2023-02-01T19:00:10.228Z,96483.94
2023-02-01T19:02:36.902Z,96480.56
2023-02-01T19:05:03.499Z,96477.09
2023-02-01T19:07:30.043Z,96475.22
2023-02-01T19:09:56.505Z,96474.34
2023-02-01T19:12:22.989Z,96469.25
2023-02-01T19:14:49.392Z,96476.16
2023-02-01T19:17:15.822Z,96472.66
2023-02-01T19:19:44.052Z,96472.66
2023-02-01T19:22:10.772Z,96475.25
2023-02-01T19:24:38.831Z,96470.09
2023-02-01T19:27:05.439Z,96479.56
2023-02-01T19:29:31.933Z,96473.50
2023-02-01T19:31:58.575Z,96471.78
2023-02-01T19:34:25.024Z,96458.16
2023-02-01T19:36:52.553Z,96463.25
2023-02-01T19:39:20.434Z,96466.69
2023-02-01T19:41:46.817Z,96468.47
2023-02-01T19:44:14.546Z,96479.69
2023-02-01T19:46:41.002Z,96477.09
2023-02-01T19:49:11.921Z,96465.84
2023-02-01T19:51:40.839Z,96470.19
2023-02-01T19:54:08.845Z,96465.03
2023-02-01T19:56:35.705Z,96460.69
2023-02-01T19:59:02.626Z,96462.50
2023-02-01T20:01:28.286Z,96471.88
2023-02-01T20:04:01.505Z,96483.06
2023-02-01T20:06:29.434Z,96483.06
2023-02-01T20:08:56.646Z,96483.94
2023-02-01T20:11:25.256Z,96479.56
2023-02-01T20:13:52.593Z,96475.38
2023-02-01T20:16:19.684Z,96474.53
2023-02-01T20:18:46.319Z,96479.66
2023-02-01T20:21:13.036Z,96477.00
2023-02-01T20:23:39.504Z,96473.59
2023-02-01T20:26:07.941Z,96471.94
2023-02-01T20:28:34.645Z,96470.22
2023-02-01T20:31:01.568Z,96471.03
2023-02-01T20:33:28.934Z,96475.31
2023-02-01T20:35:55.460Z,96473.50
2023-02-01T20:38:22.536Z,96466.63
2023-02-01T20:40:49.049Z,96473.53
2023-02-01T20:43:15.501Z,96466.56
2023-02-01T20:45:42.419Z,96472.72
2023-02-01T20:48:09.583Z,96460.69
2023-02-01T20:50:36.142Z,96458.91
2023-02-01T20:53:02.715Z,96458.06
2023-02-01T20:55:29.170Z,96455.47
2023-02-01T20:57:55.625Z,96453.75
2023-02-01T21:00:24.938Z,96455.56
2023-02-01T21:02:51.362Z,96459.91
2023-02-01T21:05:17.852Z,96475.28
2023-02-01T21:07:44.313Z,96477.00
2023-02-01T21:10:11.489Z,96479.56
2023-02-01T21:12:37.893Z,96482.25
2023-02-01T21:15:05.552Z,96482.31
2023-02-01T21:17:32.392Z,96477.09
2023-02-01T21:19:59.515Z,96479.72
2023-02-01T21:22:25.897Z,96483.19
2023-02-01T21:24:52.273Z,96487.44
2023-02-01T21:27:18.695Z,96482.41
2023-02-01T21:29:45.186Z,96484.03
2023-02-01T21:32:11.748Z,96476.16
2023-02-01T21:34:38.156Z,96470.19
2023-02-01T21:37:04.559Z,96477.97
2023-02-01T21:39:31.091Z,96476.19
2023-02-01T21:42:18.050Z,96470.19
2023-02-01T21:44:48.509Z,96465.16
2023-02-01T21:47:18.933Z,96468.56
2023-02-01T21:49:48.493Z,96466.88
2023-02-01T21:52:15.990Z,96472.00
2023-02-01T21:54:42.597Z,96474.56
2023-02-01T21:57:12.406Z,96473.72
2023-02-01T21:59:40.305Z,96468.63
2023-02-01T22:02:07.650Z,96468.63
2023-02-01T22:04:34.094Z,96474.56
2023-02-01T22:07:00.634Z,96467.72
2023-02-01T22:09:27.112Z,96460.88
2023-02-01T22:11:55.079Z,96459.94
2023-02-01T22:14:22.066Z,96463.38
2023-02-01T22:16:48.536Z,96459.13
2023-02-01T22:19:15.610Z,96455.63
2023-02-01T22:21:43.223Z,96458.25
2023-02-01T22:24:10.881Z,96452.19
2023-02-01T22:26:37.363Z,96453.09
2023-02-01T22:29:03.803Z,96464.28
2023-02-01T22:31:30.466Z,96466.00
2023-02-01T22:33:56.941Z,96478.78
2023-02-01T22:36:25.116Z,96472.88
2023-02-01T22:38:52.473Z,96477.16
2023-02-01T22:41:19.580Z,96484.97
2023-02-01T22:43:46.672Z,96480.63
2023-02-01T22:46:21.504Z,96477.16
2023-02-01T22:48:48.438Z,96483.22
2023-02-01T22:51:19.474Z,96477.16
2023-02-01T22:53:45.963Z,96484.03
2023-02-01T22:56:13.484Z,96487.50
2023-02-01T22:58:40.269Z,96486.66
2023-02-01T23:01:10.331Z,96487.56
2023-02-01T23:03:37.268Z,96497.00
2023-02-01T23:06:04.251Z,96494.34
2023-02-01T23:08:30.859Z,96498.72
2023-02-01T23:11:01.157Z,96506.44
2023-02-01T23:13:27.636Z,96509.88
2023-02-01T23:15:54.074Z,96502.09
2023-02-01T23:18:20.547Z,96492.66
2023-02-01T23:20:46.995Z,96486.59
2023-02-01T23:23:13.429Z,96486.63
2023-02-01T23:25:39.860Z,96478.88
2023-02-01T23:28:07.931Z,96486.59
2023-02-01T23:30:34.385Z,96495.19
2023-02-01T23:33:00.889Z,96494.25
2023-02-01T23:35:27.305Z,96492.59
2023-02-01T23:37:53.705Z,96496.94
2023-02-01T23:40:20.139Z,96495.13
2023-02-01T23:43:06.491Z,96487.44
2023-02-01T23:45:32.907Z,96484.75
2023-02-01T23:47:59.267Z,96471.97
2023-02-01T23:50:25.688Z,96487.28
2023-02-01T23:52:52.068Z,96471.94
2023-02-01T23:55:18.476Z,96476.13
2023-02-01T23:57:44.914Z,96477.88
